createdAt,value
2018-06-02T00:01:51.298Z,100682.18
2018-06-02T00:04:17.544Z,100682.91
2018-06-02T00:06:43.873Z,100681.53
2018-06-02T00:09:10.192Z,100682.22
2018-06-02T00:11:36.639Z,100675.42
2018-06-02T00:14:02.921Z,100676.55
2018-06-02T00:16:29.946Z,100676.25
2018-06-02T00:18:56.476Z,100675.55
2018-06-02T00:21:22.790Z,100665.75
2018-06-02T00:23:49.109Z,100673.78
2018-06-02T00:26:15.778Z,100668.94
2018-06-02T00:28:42.208Z,100674.50
2018-06-02T00:31:08.578Z,100667.42
2018-06-02T00:33:35.095Z,100670.33
2018-06-02T00:36:01.741Z,100668.00
2018-06-02T00:38:28.031Z,100664.52
2018-06-02T00:40:55.252Z,100671.34
2018-06-02T00:43:21.771Z,100668.33
2018-06-02T00:45:48.645Z,100671.77
2018-06-02T00:48:15.053Z,100671.22
2018-06-02T00:50:41.649Z,100672.48
2018-06-02T00:53:07.974Z,100674.81
2018-06-02T00:55:34.257Z,100671.08
2018-06-02T00:58:00.585Z,100669.00
2018-06-02T01:00:26.861Z,100671.23
2018-06-02T01:02:53.319Z,100675.24
2018-06-02T01:05:19.595Z,100675.52
2018-06-02T01:07:45.853Z,100678.70
2018-06-02T01:10:12.133Z,100675.13
2018-06-02T01:12:38.378Z,100675.40
2018-06-02T01:15:05.388Z,100675.63
2018-06-02T01:17:31.737Z,100674.64
2018-06-02T01:19:58.026Z,100682.10
2018-06-02T01:22:24.293Z,100676.03
2018-06-02T01:24:50.540Z,100675.20
2018-06-02T01:27:16.847Z,100672.72
2018-06-02T01:29:43.118Z,100668.30
2018-06-02T01:32:09.404Z,100674.07
2018-06-02T01:34:35.653Z,100674.76
2018-06-02T01:37:02.002Z,100677.00
2018-06-02T01:39:28.266Z,100670.20
2018-06-02T01:41:55.153Z,100672.67
2018-06-02T01:44:22.165Z,100665.50
2018-06-02T01:46:48.457Z,100674.73
2018-06-02T01:49:14.766Z,100670.41
2018-06-02T01:51:41.777Z,100674.70
2018-06-02T01:54:08.006Z,100671.28
2018-06-02T01:56:34.307Z,100673.06
2018-06-02T01:59:00.678Z,100675.50
2018-06-02T02:01:26.970Z,100675.09
2018-06-02T02:03:53.962Z,100670.81
2018-06-02T02:06:20.245Z,100680.77
2018-06-02T02:08:47.296Z,100674.28
2018-06-02T02:11:14.318Z,100680.77
2018-06-02T02:13:40.670Z,100673.02
2018-06-02T02:16:09.688Z,100672.05
2018-06-02T02:18:36.065Z,100679.07
2018-06-02T02:21:02.333Z,100675.34
2018-06-02T02:23:28.578Z,100685.66
2018-06-02T02:25:54.920Z,100675.76
2018-06-02T02:28:21.225Z,100682.77
2018-06-02T02:30:47.478Z,100686.19
2018-06-02T02:33:13.763Z,100691.98
2018-06-02T02:35:40.082Z,100689.22
2018-06-02T02:38:07.106Z,100694.02
2018-06-02T02:40:33.413Z,100693.20
2018-06-02T02:42:59.689Z,100691.19
2018-06-02T02:45:25.957Z,100690.84
2018-06-02T02:47:52.253Z,100692.36
2018-06-02T02:50:18.541Z,100688.92
2018-06-02T02:52:44.821Z,100696.54
2018-06-02T02:55:11.118Z,100698.74
2018-06-02T02:57:37.438Z,100697.39
2018-06-02T03:00:03.730Z,100694.91
2018-06-02T03:02:30.039Z,100696.70
2018-06-02T03:04:56.322Z,100706.09
2018-06-02T03:07:23.449Z,100710.61
2018-06-02T03:09:49.740Z,100716.23
2018-06-02T03:12:15.998Z,100721.37
2018-06-02T03:14:42.290Z,100724.41
2018-06-02T03:17:09.265Z,100726.02
2018-06-02T03:19:35.549Z,100725.01
2018-06-02T03:22:01.866Z,100731.86
2018-06-02T03:24:28.163Z,100730.34
2018-06-02T03:26:55.177Z,100726.52
2018-06-02T03:29:21.457Z,100726.38
2018-06-02T03:31:48.443Z,100732.69
2018-06-02T03:34:14.725Z,100728.31
2018-06-02T03:36:41.773Z,100729.09
2018-06-02T03:39:08.805Z,100727.68
2018-06-02T03:41:35.114Z,100725.46
2018-06-02T03:44:01.427Z,100732.36
2018-06-02T03:46:27.703Z,100736.82
2018-06-02T03:48:54.004Z,100729.66
2018-06-02T03:51:20.328Z,100732.50
2018-06-02T03:53:46.601Z,100738.47
2018-06-02T03:56:12.869Z,100738.60
2018-06-02T03:58:40.790Z,100743.66
2018-06-02T04:01:07.171Z,100748.85
2018-06-02T04:03:33.417Z,100753.27
2018-06-02T04:05:59.749Z,100753.27
2018-06-02T04:08:26.049Z,100763.20
2018-06-02T04:10:52.380Z,100755.36
2018-06-02T04:13:18.665Z,100754.22
2018-06-02T04:15:44.986Z,100748.23
2018-06-02T04:18:11.241Z,100748.64
2018-06-02T04:20:38.239Z,100748.55
2018-06-02T04:23:04.559Z,100750.52
2018-06-02T04:25:30.872Z,100751.82
2018-06-02T04:27:57.890Z,100753.37
2018-06-02T04:30:24.189Z,100756.30
2018-06-02T04:32:50.446Z,100749.83
2018-06-02T04:35:16.774Z,100755.66
2018-06-02T04:37:43.070Z,100757.48
2018-06-02T04:40:09.328Z,100758.74
2018-06-02T04:42:35.592Z,100766.33
2018-06-02T04:45:01.898Z,100767.17
2018-06-02T04:47:28.181Z,100762.14
2018-06-02T04:49:54.452Z,100766.59
2018-06-02T04:52:21.445Z,100779.04
2018-06-02T04:54:47.746Z,100772.29
2018-06-02T04:57:14.765Z,100770.67
2018-06-02T04:59:41.829Z,100771.86
2018-06-02T05:02:09.617Z,100764.98
2018-06-02T05:04:36.601Z,100759.23
2018-06-02T05:07:03.274Z,100758.39
2018-06-02T05:09:29.564Z,100764.66
2018-06-02T05:11:56.575Z,100763.90
2018-06-02T05:14:22.886Z,100761.95
2018-06-02T05:16:49.145Z,100764.03
2018-06-02T05:19:15.429Z,100769.63
2018-06-02T05:21:41.784Z,100768.25
2018-06-02T05:24:09.995Z,100765.06
2018-06-02T05:26:36.470Z,100754.75
2018-06-02T05:29:02.765Z,100760.83
2018-06-02T05:31:29.054Z,100757.69
2018-06-02T05:33:55.369Z,100759.27
2018-06-02T05:36:21.680Z,100759.50
2018-06-02T05:38:47.980Z,100762.59
2018-06-02T05:41:14.291Z,100763.64
2018-06-02T05:43:41.356Z,100762.38
2018-06-02T05:46:08.405Z,100765.30
2018-06-02T05:48:34.699Z,100769.97
2018-06-02T05:51:01.006Z,100768.48
2018-06-02T05:53:27.278Z,100776.94
2018-06-02T05:55:53.644Z,100775.63
2018-06-02T05:58:19.988Z,100770.28
2018-06-02T06:00:47.068Z,100772.19
2018-06-02T06:03:13.350Z,100769.84
2018-06-02T06:05:39.638Z,100765.92
2018-06-02T06:08:06.041Z,100770.61
2018-06-02T06:10:33.113Z,100771.15
2018-06-02T06:12:59.394Z,100780.07
2018-06-02T06:15:25.678Z,100775.64
2018-06-02T06:17:51.935Z,100775.77
2018-06-02T06:20:18.246Z,100773.27
2018-06-02T06:22:45.257Z,100773.58
2018-06-02T06:25:11.556Z,100780.63
2018-06-02T06:27:37.928Z,100776.53
2018-06-02T06:30:04.250Z,100778.11
2018-06-02T06:32:30.591Z,100775.11
2018-06-02T06:34:56.871Z,100768.06
2018-06-02T06:37:23.858Z,100775.80
2018-06-02T06:39:50.135Z,100774.36
2018-06-02T06:42:16.491Z,100775.63
2018-06-02T06:44:42.742Z,100775.63
2018-06-02T06:47:09.009Z,100777.23
2018-06-02T06:49:35.298Z,100769.71
2018-06-02T06:52:02.301Z,100769.22
2018-06-02T06:54:28.581Z,100771.08
2018-06-02T06:56:54.822Z,100768.63
2018-06-02T06:59:21.844Z,100769.77
2018-06-02T07:01:48.157Z,100781.55
2018-06-02T07:04:14.465Z,100775.80
2018-06-02T07:06:41.522Z,100772.29
2018-06-02T07:09:09.085Z,100771.48
2018-06-02T07:11:36.166Z,100773.57
2018-06-02T07:14:02.527Z,100769.20
2018-06-02T07:16:28.834Z,100772.05
2018-06-02T07:18:55.134Z,100771.45
2018-06-02T07:21:22.195Z,100766.67
2018-06-02T07:23:49.185Z,100769.41
2018-06-02T07:26:15.645Z,100765.87
2018-06-02T07:28:42.010Z,100766.37
2018-06-02T07:31:08.280Z,100762.75
2018-06-02T07:33:34.632Z,100766.08
2018-06-02T07:36:00.980Z,100760.18
2018-06-02T07:38:28.000Z,100763.42
2018-06-02T07:40:54.273Z,100759.59
2018-06-02T07:43:20.577Z,100757.37
2018-06-02T07:45:46.845Z,100757.38
2018-06-02T07:48:13.079Z,100756.66
2018-06-02T07:50:39.365Z,100756.05
2018-06-02T07:53:06.382Z,100756.84
2018-06-02T07:55:32.671Z,100755.18
2018-06-02T07:57:58.947Z,100752.98
2018-06-02T08:00:25.249Z,100749.78
2018-06-02T08:02:51.538Z,100753.16
2018-06-02T08:05:17.838Z,100748.72
2018-06-02T08:07:44.093Z,100750.52
2018-06-02T08:10:10.399Z,100747.73
2018-06-02T08:12:36.737Z,100739.39
2018-06-02T08:15:03.059Z,100747.83
2018-06-02T08:17:29.386Z,100746.90
2018-06-02T08:19:56.390Z,100743.52
2018-06-02T08:22:22.681Z,100751.99
2018-06-02T08:24:49.031Z,100755.56
2018-06-02T08:27:16.033Z,100759.27
2018-06-02T08:29:42.340Z,100759.40
2018-06-02T08:32:08.665Z,100749.41
2018-06-02T08:34:34.922Z,100749.55
2018-06-02T08:37:01.221Z,100749.05
2018-06-02T08:39:27.474Z,100753.45
2018-06-02T08:41:53.740Z,100753.35
2018-06-02T08:44:20.049Z,100743.92
2018-06-02T08:46:46.360Z,100746.32
2018-06-02T08:49:12.641Z,100747.85
2018-06-02T08:51:38.904Z,100734.23
2018-06-02T08:54:05.177Z,100741.27
2018-06-02T08:56:31.432Z,100737.82
2018-06-02T08:58:57.709Z,100737.41
2018-06-02T09:01:24.741Z,100738.49
2018-06-02T09:03:51.014Z,100736.73
2018-06-02T09:06:17.260Z,100739.84
2018-06-02T09:08:43.601Z,100746.32
2018-06-02T09:11:09.879Z,100741.80
2018-06-02T09:13:36.158Z,100748.24
2018-06-02T09:16:02.462Z,100742.73
2018-06-02T09:18:28.789Z,100742.98
2018-06-02T09:20:55.098Z,100748.19
2018-06-02T09:23:21.374Z,100749.32
2018-06-02T09:25:48.438Z,100745.59
2018-06-02T09:28:14.717Z,100746.46
2018-06-02T09:30:40.991Z,100739.48
2018-06-02T09:33:07.245Z,100748.09
2018-06-02T09:35:33.530Z,100746.27
2018-06-02T09:37:59.839Z,100743.15
2018-06-02T09:40:26.864Z,100743.80
2018-06-02T09:42:53.123Z,100746.59
2018-06-02T09:45:19.453Z,100746.66
2018-06-02T09:47:46.567Z,100754.80
2018-06-02T09:50:12.833Z,100746.90
2018-06-02T09:52:39.837Z,100750.89
2018-06-02T09:55:06.110Z,100745.70
2018-06-02T09:57:33.117Z,100749.14
2018-06-02T09:59:59.429Z,100747.33
2018-06-02T10:02:26.483Z,100748.63
2018-06-02T10:04:53.491Z,100747.84
2018-06-02T10:07:19.800Z,100744.24
2018-06-02T10:09:46.109Z,100745.62
2018-06-02T10:12:12.378Z,100741.11
2018-06-02T10:14:38.713Z,100739.66
2018-06-02T10:17:05.021Z,100743.11
2018-06-02T10:19:32.081Z,100745.48
2018-06-02T10:21:58.365Z,100748.65
2018-06-02T10:24:24.723Z,100746.73
2018-06-02T10:26:51.753Z,100748.75
2018-06-02T10:29:18.001Z,100750.25
2018-06-02T10:31:44.274Z,100737.34
2018-06-02T10:34:10.542Z,100740.66
2018-06-02T10:36:36.995Z,100739.08
2018-06-02T10:39:03.382Z,100729.96
2018-06-02T10:41:30.373Z,100726.92
2018-06-02T10:43:56.617Z,100721.34
2018-06-02T10:46:22.934Z,100726.17
2018-06-02T10:48:49.242Z,100716.56
2018-06-02T10:51:15.552Z,100723.95
2018-06-02T10:53:41.817Z,100716.69
2018-06-02T10:56:08.837Z,100716.75
2018-06-02T10:58:35.134Z,100712.73
2018-06-02T11:01:01.415Z,100709.68
2018-06-02T11:03:27.701Z,100713.27
2018-06-02T11:05:54.013Z,100717.82
2018-06-02T11:08:21.041Z,100709.77
2018-06-02T11:10:47.307Z,100708.66
2018-06-02T11:13:13.608Z,100710.59
2018-06-02T11:15:39.901Z,100708.30
2018-06-02T11:18:06.271Z,100702.78
2018-06-02T11:20:32.605Z,100702.93
2018-06-02T11:22:58.895Z,100696.58
2018-06-02T11:25:25.197Z,100695.47
2018-06-02T11:27:52.258Z,100684.36
2018-06-02T11:30:19.316Z,100689.85
2018-06-02T11:32:46.333Z,100688.94
2018-06-02T11:35:12.636Z,100682.70
2018-06-02T11:37:38.922Z,100674.99
2018-06-02T11:40:05.254Z,100671.58
2018-06-02T11:42:32.325Z,100676.50
2018-06-02T11:44:59.367Z,100674.86
2018-06-02T11:47:25.639Z,100668.36
2018-06-02T11:49:51.903Z,100667.58
2018-06-02T11:52:18.154Z,100672.86
2018-06-02T11:54:44.427Z,100669.40
2018-06-02T11:57:11.413Z,100668.30
2018-06-02T11:59:40.203Z,100670.70
2018-06-02T12:02:06.726Z,100655.92
2018-06-02T12:04:33.026Z,100660.17
2018-06-02T12:06:59.338Z,100661.48
2018-06-02T12:09:26.318Z,100666.70
2018-06-02T12:11:52.616Z,100660.20
2018-06-02T12:14:18.914Z,100657.19
2018-06-02T12:16:45.949Z,100662.27
2018-06-02T12:19:12.234Z,100666.05
2018-06-02T12:21:38.519Z,100655.38
2018-06-02T12:24:04.812Z,100656.13
2018-06-02T12:26:31.086Z,100655.53
2018-06-02T12:28:57.386Z,100661.92
2018-06-02T12:31:23.686Z,100653.59
2018-06-02T12:33:50.714Z,100655.23
2018-06-02T12:36:17.013Z,100649.88
2018-06-02T12:38:43.289Z,100652.45
2018-06-02T12:41:09.555Z,100652.59
2018-06-02T12:43:35.803Z,100648.72
2018-06-02T12:46:02.082Z,100641.98
2018-06-02T12:48:28.378Z,100653.41
2018-06-02T12:50:54.669Z,100650.05
2018-06-02T12:53:20.958Z,100653.28
2018-06-02T12:55:47.204Z,100650.87
2018-06-02T12:58:13.517Z,100646.16
2018-06-02T13:00:39.823Z,100646.97
2018-06-02T13:03:06.879Z,100654.29
2018-06-02T13:05:33.949Z,100646.16
2018-06-02T13:08:00.229Z,100639.75
2018-06-02T13:10:26.549Z,100637.59
2018-06-02T13:12:52.841Z,100635.45
2018-06-02T13:15:19.883Z,100632.81
2018-06-02T13:17:46.157Z,100629.25
2018-06-02T13:20:12.446Z,100629.92
2018-06-02T13:22:38.727Z,100633.60
2018-06-02T13:25:05.044Z,100630.42
2018-06-02T13:27:32.113Z,100627.78
2018-06-02T13:29:58.390Z,100621.38
2018-06-02T13:32:24.688Z,100624.80
2018-06-02T13:34:51.009Z,100624.77
2018-06-02T13:37:18.041Z,100621.45
2018-06-02T13:39:44.316Z,100617.31
2018-06-02T13:42:10.577Z,100613.66
2018-06-02T13:44:36.836Z,100613.16
2018-06-02T13:47:03.179Z,100607.19
2018-06-02T13:49:30.230Z,100603.67
2018-06-02T13:51:56.567Z,100603.30
2018-06-02T13:54:22.894Z,100607.77
2018-06-02T13:56:49.157Z,100596.34
2018-06-02T13:59:16.224Z,100592.30
2018-06-02T14:01:43.342Z,100590.77
2018-06-02T14:04:09.674Z,100592.42
2018-06-02T14:06:35.988Z,100584.38
2018-06-02T14:09:02.233Z,100580.51
2018-06-02T14:11:28.529Z,100581.59
2018-06-02T14:13:54.837Z,100579.45
2018-06-02T14:16:21.918Z,100576.70
2018-06-02T14:18:48.261Z,100575.06
2018-06-02T14:21:14.557Z,100565.41
2018-06-02T14:23:40.973Z,100562.52
2018-06-02T14:26:07.243Z,100575.59
2018-06-02T14:28:34.315Z,100573.75
2018-06-02T14:31:01.365Z,100569.05
2018-06-02T14:33:28.429Z,100571.88
2018-06-02T14:35:54.727Z,100566.23
2018-06-02T14:38:21.115Z,100565.56
2018-06-02T14:40:47.381Z,100563.50
2018-06-02T14:43:13.673Z,100554.62
2018-06-02T14:45:39.989Z,100556.84
2018-06-02T14:48:09.975Z,100559.54
2018-06-02T14:50:36.289Z,100559.72
2018-06-02T14:53:02.589Z,100548.91
2018-06-02T14:55:29.621Z,100546.22
2018-06-02T14:57:55.899Z,100543.08
2018-06-02T15:00:22.206Z,100534.09
2018-06-02T15:02:49.226Z,100533.70
2018-06-02T15:05:15.504Z,100543.59
2018-06-02T15:07:42.489Z,100536.94
2018-06-02T15:10:09.019Z,100538.66
2018-06-02T15:12:35.322Z,100533.82
2018-06-02T15:15:02.373Z,100530.84
2018-06-02T15:17:29.429Z,100529.72
2018-06-02T15:19:56.473Z,100536.84
2018-06-02T15:22:23.480Z,100529.24
2018-06-02T15:24:49.800Z,100524.99
2018-06-02T15:27:17.602Z,100521.92
2018-06-02T15:29:43.894Z,100530.02
2018-06-02T15:32:10.932Z,100531.60
2018-06-02T15:34:37.198Z,100525.63
2018-06-02T15:37:03.507Z,100525.92
2018-06-02T15:39:29.750Z,100522.13
2018-06-02T15:41:56.016Z,100519.88
2018-06-02T15:44:22.316Z,100514.39
2018-06-02T15:46:49.333Z,100510.20
2018-06-02T15:49:15.652Z,100506.31
2018-06-02T15:51:41.917Z,100509.65
2018-06-02T15:54:08.191Z,100510.36
2018-06-02T15:56:34.514Z,100513.52
2018-06-02T15:59:01.601Z,100511.08
2018-06-02T16:01:27.880Z,100513.45
2018-06-02T16:03:54.140Z,100516.95
2018-06-02T16:06:21.109Z,100513.03
2018-06-02T16:08:47.395Z,100520.80
2018-06-02T16:11:13.689Z,100523.05
2018-06-02T16:13:39.958Z,100520.98
2018-06-02T16:16:06.249Z,100518.28
2018-06-02T16:18:32.506Z,100516.75
2018-06-02T16:20:58.777Z,100518.23
2018-06-02T16:23:25.680Z,100517.71
2018-06-02T16:25:52.001Z,100516.90
2018-06-02T16:28:18.250Z,100518.42
2018-06-02T16:30:44.539Z,100514.21
2018-06-02T16:33:13.740Z,100518.13
2018-06-02T16:35:40.124Z,100507.94
2018-06-02T16:38:06.417Z,100511.33
2018-06-02T16:40:32.699Z,100509.41
2018-06-02T16:42:59.532Z,100513.40
2018-06-02T16:45:25.821Z,100507.25
2018-06-02T16:47:52.141Z,100517.30
2018-06-02T16:50:18.457Z,100510.27
2018-06-02T16:52:44.784Z,100514.21
2018-06-02T16:55:11.055Z,100506.42
2018-06-02T16:57:37.326Z,100513.58
2018-06-02T17:00:04.838Z,100508.81
2018-06-02T17:02:31.129Z,100509.82
2018-06-02T17:04:57.442Z,100504.56
2018-06-02T17:07:23.719Z,100513.40
2018-06-02T17:09:49.970Z,100511.58
2018-06-02T17:12:16.257Z,100514.25
2018-06-02T17:14:42.514Z,100522.44
2018-06-02T17:17:12.948Z,100520.66
2018-06-02T17:19:41.877Z,100528.50
2018-06-02T17:22:09.171Z,100531.23
2018-06-02T17:24:37.206Z,100531.03
2018-06-02T17:27:04.536Z,100528.44
2018-06-02T17:29:31.573Z,100530.33
2018-06-02T17:31:58.568Z,100524.14
2018-06-02T17:34:25.113Z,100526.69
2018-06-02T17:36:51.466Z,100522.98
2018-06-02T17:39:17.718Z,100528.77
2018-06-02T17:41:44.018Z,100529.59
2018-06-02T17:44:10.285Z,100524.38
2018-06-02T17:46:36.636Z,100527.19
2018-06-02T17:49:02.956Z,100526.59
2018-06-02T17:51:29.235Z,100528.35
2018-06-02T17:53:55.526Z,100534.67
2018-06-02T17:56:21.837Z,100536.84
2018-06-02T17:58:48.078Z,100536.25
2018-06-02T18:01:14.393Z,100541.87
2018-06-02T18:03:40.673Z,100549.13
2018-06-02T18:06:06.949Z,100551.97
2018-06-02T18:08:34.056Z,100548.87
2018-06-02T18:11:00.337Z,100549.63
2018-06-02T18:13:27.369Z,100559.67
2018-06-02T18:15:54.430Z,100555.80
2018-06-02T18:18:20.722Z,100558.37
2018-06-02T18:20:47.002Z,100559.33
2018-06-02T18:23:13.293Z,100562.94
2018-06-02T18:25:39.578Z,100560.92
2018-06-02T18:28:06.622Z,100563.03
2018-06-02T18:30:32.861Z,100567.80
2018-06-02T18:32:59.165Z,100567.25
2018-06-02T18:35:25.430Z,100567.09
2018-06-02T18:37:52.418Z,100571.70
2018-06-02T18:40:18.717Z,100570.05
2018-06-02T18:42:45.010Z,100574.55
2018-06-02T18:45:11.296Z,100573.72
2018-06-02T18:47:38.353Z,100570.64
2018-06-02T18:50:05.468Z,100576.16
2018-06-02T18:52:31.737Z,100573.41
2018-06-02T18:54:58.796Z,100567.09
2018-06-02T18:57:25.862Z,100577.75
2018-06-02T18:59:52.181Z,100578.95
2018-06-02T19:02:19.222Z,100582.76
2018-06-02T19:04:45.521Z,100582.57
2018-06-02T19:07:11.744Z,100587.63
2018-06-02T19:09:38.066Z,100592.63
2018-06-02T19:12:04.392Z,100592.81
2018-06-02T19:14:31.462Z,100597.32
2018-06-02T19:16:57.784Z,100596.70
2018-06-02T19:19:24.824Z,100603.32
2018-06-02T19:21:51.858Z,100610.17
2018-06-02T19:24:18.153Z,100608.82
2018-06-02T19:26:44.426Z,100613.74
2018-06-02T19:29:10.719Z,100616.00
2018-06-02T19:31:37.078Z,100623.43
2018-06-02T19:34:03.353Z,100624.53
2018-06-02T19:36:29.631Z,100630.62
2018-06-02T19:38:55.949Z,100632.30
2018-06-02T19:41:22.269Z,100637.38
2018-06-02T19:43:49.305Z,100639.97
2018-06-02T19:46:15.604Z,100649.44
2018-06-02T19:48:42.082Z,100655.92
2018-06-02T19:51:08.439Z,100655.64
2018-06-02T19:53:35.541Z,100658.34
2018-06-02T19:56:01.795Z,100664.16
2018-06-02T19:58:28.038Z,100665.96
2018-06-02T20:00:55.028Z,100666.22
2018-06-02T20:03:21.358Z,100675.70
2018-06-02T20:05:48.773Z,100669.25
2018-06-02T20:08:15.181Z,100675.23
2018-06-02T20:10:41.463Z,100673.81
2018-06-02T20:13:07.956Z,100675.11
2018-06-02T20:15:34.289Z,100678.33
2018-06-02T20:18:00.594Z,100683.98
2018-06-02T20:20:27.717Z,100686.39
2018-06-02T20:22:56.549Z,100691.13
2018-06-02T20:25:22.901Z,100686.27
2018-06-02T20:27:49.227Z,100679.36
2018-06-02T20:30:16.366Z,100684.02
2018-06-02T20:32:43.427Z,100680.36
2018-06-02T20:35:10.449Z,100686.64
2018-06-02T20:37:36.754Z,100685.13
2018-06-02T20:40:03.046Z,100689.39
2018-06-02T20:42:29.365Z,100691.58
2018-06-02T20:44:55.675Z,100689.00
2018-06-02T20:47:21.957Z,100692.25
2018-06-02T20:49:48.289Z,100693.73
2018-06-02T20:52:14.685Z,100692.86
2018-06-02T20:54:40.921Z,100699.52
2018-06-02T20:57:07.211Z,100695.14
2018-06-02T20:59:34.266Z,100701.98
2018-06-02T21:02:01.318Z,100697.77
2018-06-02T21:04:31.404Z,100703.89
2018-06-02T21:06:57.797Z,100706.23
2018-06-02T21:09:24.081Z,100710.42
2018-06-02T21:11:50.370Z,100710.25
2018-06-02T21:14:16.677Z,100720.47
2018-06-02T21:16:42.965Z,100718.26
2018-06-02T21:19:09.286Z,100714.14
2018-06-02T21:21:35.565Z,100720.72
2018-06-02T21:24:01.849Z,100714.68
2018-06-02T21:26:28.145Z,100716.31
2018-06-02T21:28:54.477Z,100715.27
2018-06-02T21:31:20.761Z,100716.12
2018-06-02T21:33:47.082Z,100720.70
2018-06-02T21:36:13.328Z,100719.36
2018-06-02T21:38:39.684Z,100723.67
2018-06-02T21:41:06.007Z,100729.25
2018-06-02T21:43:32.292Z,100730.60
2018-06-02T21:46:01.768Z,100730.45
2018-06-02T21:48:28.850Z,100730.79
2018-06-02T21:50:55.132Z,100727.67
2018-06-02T21:53:22.129Z,100732.69
2018-06-02T21:55:48.478Z,100731.52
2018-06-02T21:58:14.785Z,100726.00
2018-06-02T22:00:41.110Z,100730.46
2018-06-02T22:03:08.576Z,100731.52
2018-06-02T22:05:34.898Z,100731.20
2018-06-02T22:08:01.230Z,100736.39
2018-06-02T22:10:28.253Z,100739.16
2018-06-02T22:12:55.255Z,100735.83
2018-06-02T22:15:21.620Z,100731.55
2018-06-02T22:17:47.905Z,100729.31
2018-06-02T22:20:14.909Z,100727.66
2018-06-02T22:22:41.243Z,100731.63
2018-06-02T22:25:07.501Z,100737.28
2018-06-02T22:27:33.748Z,100733.13
2018-06-02T22:30:00.081Z,100734.99
2018-06-02T22:32:27.089Z,100727.24
2018-06-02T22:34:53.372Z,100721.84
2018-06-02T22:37:19.651Z,100725.31
2018-06-02T22:39:45.920Z,100720.89
2018-06-02T22:42:12.182Z,100723.70
2018-06-02T22:44:39.182Z,100719.94
2018-06-02T22:47:05.479Z,100717.77
2018-06-02T22:49:32.493Z,100726.78
2018-06-02T22:51:58.797Z,100727.62
2018-06-02T22:54:25.095Z,100726.05
2018-06-02T22:56:52.145Z,100730.93
2018-06-02T22:59:19.169Z,100730.14
2018-06-02T23:01:45.504Z,100731.67
2018-06-02T23:04:11.782Z,100725.91
2018-06-02T23:06:38.832Z,100731.89
2018-06-02T23:09:05.910Z,100734.91
2018-06-02T23:11:32.242Z,100734.80
2018-06-02T23:13:58.511Z,100732.56
2018-06-02T23:16:24.782Z,100733.28
2018-06-02T23:18:51.109Z,100732.70
2018-06-02T23:21:17.397Z,100737.98
2018-06-02T23:23:43.687Z,100736.59
2018-06-02T23:26:09.935Z,100742.53
2018-06-02T23:28:36.982Z,100742.27
2018-06-02T23:31:06.192Z,100741.46
2018-06-02T23:33:32.629Z,100743.66
2018-06-02T23:35:59.614Z,100746.16
2018-06-02T23:38:25.905Z,100747.83
2018-06-02T23:40:52.217Z,100741.04
2018-06-02T23:43:18.522Z,100743.81
2018-06-02T23:45:44.801Z,100743.54
2018-06-02T23:48:11.211Z,100739.67
2018-06-02T23:50:37.497Z,100739.10
2018-06-02T23:53:04.534Z,100743.38
2018-06-02T23:55:30.830Z,100741.89
2018-06-02T23:57:57.091Z,100745.19
